sensor_id;sensor_type;location;lat;lon;timestamp;pressure;altitude;pressure_sealevel;temperature
1532;BMP280;759;53.170;8.210;2022-08-21T00:00:43;100769.28;;;17.05
1532;BMP280;759;53.170;8.210;2022-08-21T00:03:10;100787.03;;;17.19
1532;BMP280;759;53.170;8.210;2022-08-21T00:05:41;100781.63;;;17.19
1532;BMP280;759;53.170;8.210;2022-08-21T00:08:06;100781.63;;;17.19
1532;BMP280;759;53.170;8.210;2022-08-21T00:10:32;100773.38;;;17.10
1532;BMP280;759;53.170;8.210;2022-08-21T00:13:00;100767.66;;;17.21
1532;BMP280;759;53.170;8.210;2022-08-21T00:15:28;100750.59;;;17.11
1532;BMP280;759;53.170;8.210;2022-08-21T00:17:55;100764.53;;;17.22
1532;BMP280;759;53.170;8.210;2022-08-21T00:20:22;100761.81;;;17.22
1532;BMP280;759;53.170;8.210;2022-08-21T00:22:48;100762.38;;;17.17
1532;BMP280;759;53.170;8.210;2022-08-21T00:25:15;100765.41;;;17.19
1532;BMP280;759;53.170;8.210;2022-08-21T00:27:41;100764.66;;;17.19
1532;BMP280;759;53.170;8.210;2022-08-21T00:30:13;100760.22;;;17.12
1532;BMP280;759;53.170;8.210;2022-08-21T00:32:40;100751.34;;;17.11
1532;BMP280;759;53.170;8.210;2022-08-21T00:35:08;100756.53;;;17.06
1532;BMP280;759;53.170;8.210;2022-08-21T00:37:33;100744.22;;;17.05
1532;BMP280;759;53.170;8.210;2022-08-21T00:39:59;100740.78;;;16.92
1532;BMP280;759;53.170;8.210;2022-08-21T00:42:25;100736.03;;;16.83
1532;BMP280;759;53.170;8.210;2022-08-21T00:44:51;100730.06;;;16.75
1532;BMP280;759;53.170;8.210;2022-08-21T00:47:17;100733.41;;;16.79
1532;BMP280;759;53.170;8.210;2022-08-21T00:49:44;100739.81;;;16.85
1532;BMP280;759;53.170;8.210;2022-08-21T00:52:14;100741.19;;;16.77
1532;BMP280;759;53.170;8.210;2022-08-21T00:54:41;100738.72;;;16.83
1532;BMP280;759;53.170;8.210;2022-08-21T00:57:19;100736.00;;;16.70
1532;BMP280;759;53.170;8.210;2022-08-21T00:59:48;100734.72;;;16.62
1532;BMP280;759;53.170;8.210;2022-08-21T01:02:15;100750.91;;;16.75
1532;BMP280;759;53.170;8.210;2022-08-21T01:04:41;100751.69;;;16.75
1532;BMP280;759;53.170;8.210;2022-08-21T01:07:07;100743.16;;;16.77
1532;BMP280;759;53.170;8.210;2022-08-21T01:09:32;100744.53;;;16.68
1532;BMP280;759;53.170;8.210;2022-08-21T01:11:58;100722.41;;;16.61
1532;BMP280;759;53.170;8.210;2022-08-21T01:14:24;100728.56;;;16.61
1532;BMP280;759;53.170;8.210;2022-08-21T01:16:52;100742.28;;;16.67
1532;BMP280;759;53.170;8.210;2022-08-21T01:19:20;100732.13;;;16.46
1532;BMP280;759;53.170;8.210;2022-08-21T01:21:46;100746.91;;;16.54
1532;BMP280;759;53.170;8.210;2022-08-21T01:24:12;100745.38;;;16.53
1532;BMP280;759;53.170;8.210;2022-08-21T01:26:38;100734.44;;;16.43
1532;BMP280;759;53.170;8.210;2022-08-21T01:29:43;100751.44;;;16.44
1532;BMP280;759;53.170;8.210;2022-08-21T01:32:13;100755.00;;;16.54
1532;BMP280;759;53.170;8.210;2022-08-21T01:34:42;100738.63;;;16.32
1532;BMP280;759;53.170;8.210;2022-08-21T01:37:09;100755.00;;;16.54
1532;BMP280;759;53.170;8.210;2022-08-21T01:39:35;100743.56;;;16.50
1532;BMP280;759;53.170;8.210;2022-08-21T01:42:01;100728.28;;;16.43
1532;BMP280;759;53.170;8.210;2022-08-21T01:44:27;100739.66;;;16.51
1532;BMP280;759;53.170;8.210;2022-08-21T01:46:54;100751.22;;;16.51
1532;BMP280;759;53.170;8.210;2022-08-21T01:49:20;100752.28;;;16.41
1532;BMP280;759;53.170;8.210;2022-08-21T01:51:46;100730.13;;;16.33
1532;BMP280;759;53.170;8.210;2022-08-21T01:54:11;100738.34;;;16.42
1532;BMP280;759;53.170;8.210;2022-08-21T01:56:39;100749.59;;;16.41
1532;BMP280;759;53.170;8.210;2022-08-21T01:59:06;100722.41;;;16.19
1532;BMP280;759;53.170;8.210;2022-08-21T02:01:31;100741.78;;;16.30
1532;BMP280;759;53.170;8.210;2022-08-21T02:03:57;100736.50;;;16.27
1532;BMP280;759;53.170;8.210;2022-08-21T02:06:22;100736.59;;;16.23
1532;BMP280;759;53.170;8.210;2022-08-21T02:08:48;100723.19;;;16.32
1532;BMP280;759;53.170;8.210;2022-08-21T02:11:15;100732.06;;;16.33
1532;BMP280;759;53.170;8.210;2022-08-21T02:13:41;100724.53;;;16.40
1532;BMP280;759;53.170;8.210;2022-08-21T02:16:07;100727.41;;;16.33
1532;BMP280;759;53.170;8.210;2022-08-21T02:18:33;100735.97;;;16.44
1532;BMP280;759;53.170;8.210;2022-08-21T02:20:59;100731.41;;;16.41
1532;BMP280;759;53.170;8.210;2022-08-21T02:23:24;100727.88;;;16.44
1532;BMP280;759;53.170;8.210;2022-08-21T02:25:50;100717.09;;;16.44
1532;BMP280;759;53.170;8.210;2022-08-21T02:28:15;100717.41;;;16.47
1532;BMP280;759;53.170;8.210;2022-08-21T02:30:43;100721.63;;;16.48
1532;BMP280;759;53.170;8.210;2022-08-21T02:33:09;100718.25;;;16.43
1532;BMP280;759;53.170;8.210;2022-08-21T02:35:37;100716.34;;;16.57
1532;BMP280;759;53.170;8.210;2022-08-21T02:38:05;100710.50;;;16.58
1532;BMP280;759;53.170;8.210;2022-08-21T02:40:34;100706.38;;;16.54
1532;BMP280;759;53.170;8.210;2022-08-21T02:43:01;100715.47;;;16.60
1532;BMP280;759;53.170;8.210;2022-08-21T02:45:28;100711.03;;;16.53
1532;BMP280;759;53.170;8.210;2022-08-21T02:47:57;100711.03;;;16.53
1532;BMP280;759;53.170;8.210;2022-08-21T02:50:26;100712.00;;;16.47
1532;BMP280;759;53.170;8.210;2022-08-21T02:52:51;100696.75;;;16.53
1532;BMP280;759;53.170;8.210;2022-08-21T02:55:19;100704.34;;;16.58
1532;BMP280;759;53.170;8.210;2022-08-21T02:57:45;100703.59;;;16.57
1532;BMP280;759;53.170;8.210;2022-08-21T03:00:11;100691.69;;;16.55
1532;BMP280;759;53.170;8.210;2022-08-21T03:02:38;100712.78;;;16.73
1532;BMP280;759;53.170;8.210;2022-08-21T03:05:05;100710.94;;;16.57
1532;BMP280;759;53.170;8.210;2022-08-21T03:07:31;100706.16;;;16.48
1532;BMP280;759;53.170;8.210;2022-08-21T03:09:56;100714.59;;;16.63
1532;BMP280;759;53.170;8.210;2022-08-21T03:12:22;100697.53;;;16.40
1532;BMP280;759;53.170;8.210;2022-08-21T03:14:48;100710.50;;;16.46
1532;BMP280;759;53.170;8.210;2022-08-21T03:17:13;100695.47;;;16.44
1532;BMP280;759;53.170;8.210;2022-08-21T03:19:38;100695.59;;;16.41
1532;BMP280;759;53.170;8.210;2022-08-21T03:22:04;100724.72;;;16.33
1532;BMP280;759;53.170;8.210;2022-08-21T03:24:30;100691.31;;;16.14
1532;BMP280;759;53.170;8.210;2022-08-21T03:26:55;100707.25;;;16.25
1532;BMP280;759;53.170;8.210;2022-08-21T03:29:22;100698.13;;;16.19
1532;BMP280;759;53.170;8.210;2022-08-21T03:31:47;100690.59;;;16.14
1532;BMP280;759;53.170;8.210;2022-08-21T03:34:12;100683.13;;;16.18
1532;BMP280;759;53.170;8.210;2022-08-21T03:36:38;100694.56;;;16.22
1532;BMP280;759;53.170;8.210;2022-08-21T03:39:03;100687.53;;;16.12
1532;BMP280;759;53.170;8.210;2022-08-21T03:41:29;100680.50;;;16.02
1532;BMP280;759;53.170;8.210;2022-08-21T03:43:54;100671.13;;;16.06
1532;BMP280;759;53.170;8.210;2022-08-21T03:46:20;100684.63;;;16.06
1532;BMP280;759;53.170;8.210;2022-08-21T03:48:45;100692.81;;;16.03
1532;BMP280;759;53.170;8.210;2022-08-21T03:51:11;100687.94;;;15.97
1532;BMP280;759;53.170;8.210;2022-08-21T03:53:37;100693.13;;;16.05
1532;BMP280;759;53.170;8.210;2022-08-21T03:56:03;100684.16;;;15.95
1532;BMP280;759;53.170;8.210;2022-08-21T03:58:28;100678.84;;;15.91
1532;BMP280;759;53.170;8.210;2022-08-21T04:00:57;100689.81;;;15.84
1532;BMP280;759;53.170;8.210;2022-08-21T04:03:23;100667.19;;;15.65
1532;BMP280;759;53.170;8.210;2022-08-21T04:05:48;100688.50;;;15.76
1532;BMP280;759;53.170;8.210;2022-08-21T04:08:15;100683.28;;;15.69
1532;BMP280;759;53.170;8.210;2022-08-21T04:10:43;100685.75;;;15.63
1532;BMP280;759;53.170;8.210;2022-08-21T04:13:09;100689.44;;;15.69
1532;BMP280;759;53.170;8.210;2022-08-21T04:15:35;100673.78;;;15.48
1532;BMP280;759;53.170;8.210;2022-08-21T04:18:01;100686.50;;;15.64
1532;BMP280;759;53.170;8.210;2022-08-21T04:20:27;100681.72;;;15.55
1532;BMP280;759;53.170;8.210;2022-08-21T04:22:52;100700.44;;;15.62
1532;BMP280;759;53.170;8.210;2022-08-21T04:25:20;100694.91;;;15.66
1532;BMP280;759;53.170;8.210;2022-08-21T04:27:46;100681.19;;;15.60
1532;BMP280;759;53.170;8.210;2022-08-21T04:30:13;100688.75;;;15.65
1532;BMP280;759;53.170;8.210;2022-08-21T04:32:38;100687.03;;;15.59
1532;BMP280;759;53.170;8.210;2022-08-21T04:35:08;100697.97;;;15.68
1532;BMP280;759;53.170;8.210;2022-08-21T04:37:34;100688.72;;;15.52
1532;BMP280;759;53.170;8.210;2022-08-21T04:40:00;100704.94;;;15.65
1532;BMP280;759;53.170;8.210;2022-08-21T04:42:27;100697.97;;;15.68
1532;BMP280;759;53.170;8.210;2022-08-21T04:44:53;100696.78;;;15.69
1532;BMP280;759;53.170;8.210;2022-08-21T04:47:20;100695.84;;;15.59
1532;BMP280;759;53.170;8.210;2022-08-21T04:49:45;100713.38;;;15.67
1532;BMP280;759;53.170;8.210;2022-08-21T04:52:13;100716.84;;;15.68
1532;BMP280;759;53.170;8.210;2022-08-21T04:54:41;100703.38;;;15.51
1532;BMP280;759;53.170;8.210;2022-08-21T04:57:09;100695.63;;;15.53
1532;BMP280;759;53.170;8.210;2022-08-21T04:59:40;100719.56;;;15.68
1532;BMP280;759;53.170;8.210;2022-08-21T05:02:07;100706.56;;;15.63
1532;BMP280;759;53.170;8.210;2022-08-21T05:04:36;100714.97;;;15.65
1532;BMP280;759;53.170;8.210;2022-08-21T05:07:05;100719.56;;;15.68
1532;BMP280;759;53.170;8.210;2022-08-21T05:09:33;100723.50;;;15.63
1532;BMP280;759;53.170;8.210;2022-08-21T05:12:00;100719.72;;;15.61
1532;BMP280;759;53.170;8.210;2022-08-21T05:14:26;100709.91;;;15.67
1532;BMP280;759;53.170;8.210;2022-08-21T05:16:52;100708.28;;;15.57
1532;BMP280;759;53.170;8.210;2022-08-21T05:19:17;100710.91;;;15.73
1532;BMP280;759;53.170;8.210;2022-08-21T05:21:44;100713.88;;;15.79
1532;BMP280;759;53.170;8.210;2022-08-21T05:24:10;100708.31;;;15.69
1532;BMP280;759;53.170;8.210;2022-08-21T05:26:37;100729.59;;;15.96
1532;BMP280;759;53.170;8.210;2022-08-21T05:29:04;100725.88;;;15.90
1532;BMP280;759;53.170;8.210;2022-08-21T05:31:29;100712.84;;;15.89
1532;BMP280;759;53.170;8.210;2022-08-21T05:33:55;100720.09;;;16.05
1532;BMP280;759;53.170;8.210;2022-08-21T05:36:20;100713.75;;;15.82
1532;BMP280;759;53.170;8.210;2022-08-21T05:38:46;100710.38;;;15.94
1532;BMP280;759;53.170;8.210;2022-08-21T05:41:11;100722.84;;;15.88
1532;BMP280;759;53.170;8.210;2022-08-21T05:43:37;100720.50;;;15.90
1532;BMP280;759;53.170;8.210;2022-08-21T05:46:03;100712.22;;;15.97
1532;BMP280;759;53.170;8.210;2022-08-21T05:48:29;100723.44;;;16.25
1532;BMP280;759;53.170;8.210;2022-08-21T05:50:55;100717.94;;;16.29
1532;BMP280;759;53.170;8.210;2022-08-21T05:53:22;100719.31;;;16.33
1532;BMP280;759;53.170;8.210;2022-08-21T05:55:48;100722.06;;;16.46
1532;BMP280;759;53.170;8.210;2022-08-21T05:58:16;100717.94;;;16.54
1532;BMP280;759;53.170;8.210;2022-08-21T06:00:43;100699.47;;;16.53
1532;BMP280;759;53.170;8.210;2022-08-21T06:03:14;100706.84;;;16.65
1532;BMP280;759;53.170;8.210;2022-08-21T06:05:40;100709.00;;;16.83
1532;BMP280;759;53.170;8.210;2022-08-21T06:08:06;100719.03;;;16.95
1532;BMP280;759;53.170;8.210;2022-08-21T06:10:31;100718.28;;;17.07
1532;BMP280;759;53.170;8.210;2022-08-21T06:12:57;100708.50;;;17.10
1532;BMP280;759;53.170;8.210;2022-08-21T06:15:22;100719.63;;;17.25
1532;BMP280;759;53.170;8.210;2022-08-21T06:17:47;100707.22;;;17.27
1532;BMP280;759;53.170;8.210;2022-08-21T06:20:13;100703.31;;;17.28
1532;BMP280;759;53.170;8.210;2022-08-21T06:22:38;100720.31;;;17.51
1532;BMP280;759;53.170;8.210;2022-08-21T06:25:05;100719.56;;;17.50
1532;BMP280;759;53.170;8.210;2022-08-21T06:27:30;100705.94;;;17.54
1532;BMP280;759;53.170;8.210;2022-08-21T06:29:55;100718.72;;;17.75
1532;BMP280;759;53.170;8.210;2022-08-21T06:32:22;100711.16;;;17.70
1532;BMP280;759;53.170;8.210;2022-08-21T06:34:48;100711.78;;;17.74
1532;BMP280;759;53.170;8.210;2022-08-21T06:37:14;100710.09;;;17.90
1532;BMP280;759;53.170;8.210;2022-08-21T06:39:39;100722.13;;;17.89
1532;BMP280;759;53.170;8.210;2022-08-21T06:42:05;100719.50;;;17.98
1532;BMP280;759;53.170;8.210;2022-08-21T06:44:30;100716.38;;;18.09
1532;BMP280;759;53.170;8.210;2022-08-21T06:46:56;100722.63;;;18.18
1532;BMP280;759;53.170;8.210;2022-08-21T06:49:22;100742.88;;;18.36
1532;BMP280;759;53.170;8.210;2022-08-21T06:51:47;100734.88;;;18.32
1532;BMP280;759;53.170;8.210;2022-08-21T06:54:13;100733.81;;;18.29
1532;BMP280;759;53.170;8.210;2022-08-21T06:56:39;100724.91;;;18.29
1532;BMP280;759;53.170;8.210;2022-08-21T06:59:05;100730.25;;;18.42
1532;BMP280;759;53.170;8.210;2022-08-21T07:01:31;100715.97;;;18.41
1532;BMP280;759;53.170;8.210;2022-08-21T07:03:57;100724.59;;;18.58
1532;BMP280;759;53.170;8.210;2022-08-21T07:06:22;100713.00;;;18.58
1532;BMP280;759;53.170;8.210;2022-08-21T07:08:48;100727.66;;;18.69
1532;BMP280;759;53.170;8.210;2022-08-21T07:11:23;100717.13;;;18.71
1532;BMP280;759;53.170;8.210;2022-08-21T07:13:49;100710.22;;;18.80
1532;BMP280;759;53.170;8.210;2022-08-21T07:16:17;100719.25;;;18.86
1532;BMP280;759;53.170;8.210;2022-08-21T07:18:42;100711.88;;;18.95
1532;BMP280;759;53.170;8.210;2022-08-21T07:21:08;100729.25;;;19.16
1532;BMP280;759;53.170;8.210;2022-08-21T07:23:38;100726.69;;;19.13
1532;BMP280;759;53.170;8.210;2022-08-21T07:26:05;100732.16;;;19.31
1532;BMP280;759;53.170;8.210;2022-08-21T07:28:31;100729.88;;;19.30
1532;BMP280;759;53.170;8.210;2022-08-21T07:30:58;100723.56;;;19.33
1532;BMP280;759;53.170;8.210;2022-08-21T07:33:26;100725.66;;;19.38
1532;BMP280;759;53.170;8.210;2022-08-21T07:35:52;100719.31;;;19.41
1532;BMP280;759;53.170;8.210;2022-08-21T07:38:18;100720.22;;;19.56
1532;BMP280;759;53.170;8.210;2022-08-21T07:40:45;100727.78;;;19.71
1532;BMP280;759;53.170;8.210;2022-08-21T07:43:10;100733.47;;;19.73
1532;BMP280;759;53.170;8.210;2022-08-21T07:45:36;100742.78;;;19.90
1532;BMP280;759;53.170;8.210;2022-08-21T07:48:03;100731.66;;;19.79
1532;BMP280;759;53.170;8.210;2022-08-21T07:50:28;100742.34;;;20.01
1532;BMP280;759;53.170;8.210;2022-08-21T07:52:54;100735.22;;;20.12
1532;BMP280;759;53.170;8.210;2022-08-21T07:55:21;100742.88;;;20.32
1532;BMP280;759;53.170;8.210;2022-08-21T07:57:47;100744.88;;;20.13
1532;BMP280;759;53.170;8.210;2022-08-21T08:00:20;100737.31;;;20.17
1532;BMP280;759;53.170;8.210;2022-08-21T08:02:49;100745.38;;;20.36
1532;BMP280;759;53.170;8.210;2022-08-21T08:05:17;100749.28;;;20.53
1532;BMP280;759;53.170;8.210;2022-08-21T08:07:43;100743.03;;;20.62
1532;BMP280;759;53.170;8.210;2022-08-21T08:10:09;100741.94;;;20.69
1532;BMP280;759;53.170;8.210;2022-08-21T08:12:39;100745.75;;;20.62
1532;BMP280;759;53.170;8.210;2022-08-21T08:15:08;100732.75;;;20.57
1532;BMP280;759;53.170;8.210;2022-08-21T08:17:34;100733.94;;;20.65
1532;BMP280;759;53.170;8.210;2022-08-21T08:20:00;100724.41;;;20.70
1532;BMP280;759;53.170;8.210;2022-08-21T08:22:26;100734.06;;;20.71
1532;BMP280;759;53.170;8.210;2022-08-21T08:24:52;100737.91;;;20.88
1532;BMP280;759;53.170;8.210;2022-08-21T08:27:18;100730.88;;;20.96
1532;BMP280;759;53.170;8.210;2022-08-21T08:29:45;100739.97;;;21.17
1532;BMP280;759;53.170;8.210;2022-08-21T08:32:11;100743.00;;;21.34
1532;BMP280;759;53.170;8.210;2022-08-21T08:34:38;100746.34;;;21.29
1532;BMP280;759;53.170;8.210;2022-08-21T08:37:05;100733.59;;;21.20
1532;BMP280;759;53.170;8.210;2022-08-21T08:39:31;100734.91;;;21.25
1532;BMP280;759;53.170;8.210;2022-08-21T08:44:36;100736.44;;;21.41
1532;BMP280;759;53.170;8.210;2022-08-21T08:47:02;100731.00;;;21.26
1532;BMP280;759;53.170;8.210;2022-08-21T08:49:42;100744.63;;;21.41
1532;BMP280;759;53.170;8.210;2022-08-21T08:52:28;100749.88;;;21.44
1532;BMP280;759;53.170;8.210;2022-08-21T08:57:28;100741.81;;;21.50
1532;BMP280;759;53.170;8.210;2022-08-21T08:59:58;100732.25;;;21.54
1532;BMP280;759;53.170;8.210;2022-08-21T09:02:24;100729.34;;;21.73
1532;BMP280;759;53.170;8.210;2022-08-21T09:04:51;100729.31;;;21.88
1532;BMP280;759;53.170;8.210;2022-08-21T09:07:47;100747.53;;;21.96
1532;BMP280;759;53.170;8.210;2022-08-21T09:10:29;100749.06;;;21.82
1532;BMP280;759;53.170;8.210;2022-08-21T09:13:16;100747.91;;;21.89
1532;BMP280;759;53.170;8.210;2022-08-21T09:16:00;100739.19;;;21.85
1532;BMP280;759;53.170;8.210;2022-08-21T09:21:31;100748.88;;;21.86
1532;BMP280;759;53.170;8.210;2022-08-21T09:27:12;100734.75;;;22.02
1532;BMP280;759;53.170;8.210;2022-08-21T09:29:43;100727.72;;;22.11
1532;BMP280;759;53.170;8.210;2022-08-21T09:32:18;100739.22;;;22.35
1532;BMP280;759;53.170;8.210;2022-08-21T09:34:56;100733.78;;;22.55
1532;BMP280;759;53.170;8.210;2022-08-21T09:37:22;100741.16;;;22.70
1532;BMP280;759;53.170;8.210;2022-08-21T09:39:47;100728.88;;;22.80
1532;BMP280;759;53.170;8.210;2022-08-21T09:42:25;100741.38;;;23.07
1532;BMP280;759;53.170;8.210;2022-08-21T09:45:09;100755.66;;;23.22
1532;BMP280;759;53.170;8.210;2022-08-21T09:47:34;100734.88;;;23.30
1532;BMP280;759;53.170;8.210;2022-08-21T09:50:09;100721.44;;;23.27
1532;BMP280;759;53.170;8.210;2022-08-21T09:52:43;100746.06;;;23.59
1532;BMP280;759;53.170;8.210;2022-08-21T09:55:15;100751.25;;;23.88
1532;BMP280;759;53.170;8.210;2022-08-21T09:58:01;100745.25;;;23.78
1532;BMP280;759;53.170;8.210;2022-08-21T10:00:31;100745.03;;;23.88
1532;BMP280;759;53.170;8.210;2022-08-21T10:03:12;100746.34;;;23.92
1532;BMP280;759;53.170;8.210;2022-08-21T10:05:38;100739.19;;;23.69
1532;BMP280;759;53.170;8.210;2022-08-21T10:08:04;100738.41;;;23.63
1532;BMP280;759;53.170;8.210;2022-08-21T10:10:35;100737.13;;;23.90
1532;BMP280;759;53.170;8.210;2022-08-21T10:21:14;100737.22;;;23.17
1532;BMP280;759;53.170;8.210;2022-08-21T10:27:10;100727.13;;;23.81
1532;BMP280;759;53.170;8.210;2022-08-21T10:43:08;100737.09;;;24.21
1532;BMP280;759;53.170;8.210;2022-08-21T10:45:54;100711.00;;;24.26
1532;BMP280;759;53.170;8.210;2022-08-21T10:48:43;100720.88;;;24.61
1532;BMP280;759;53.170;8.210;2022-08-21T10:51:24;100723.16;;;24.85
1532;BMP280;759;53.170;8.210;2022-08-21T10:56:43;100726.22;;;25.15
1532;BMP280;759;53.170;8.210;2022-08-21T10:59:28;100728.94;;;25.09
1532;BMP280;759;53.170;8.210;2022-08-21T11:02:01;100735.44;;;25.23
1532;BMP280;759;53.170;8.210;2022-08-21T11:04:37;100733.66;;;24.97
1532;BMP280;759;53.170;8.210;2022-08-21T11:07:19;100728.34;;;24.77
1532;BMP280;759;53.170;8.210;2022-08-21T11:09:47;100728.88;;;24.81
1532;BMP280;759;53.170;8.210;2022-08-21T11:12:44;100733.94;;;25.11
1532;BMP280;759;53.170;8.210;2022-08-21T11:24:17;100724.13;;;24.70
1532;BMP280;759;53.170;8.210;2022-08-21T11:27:28;100739.13;;;25.09
1532;BMP280;759;53.170;8.210;2022-08-21T11:29:59;100725.22;;;25.12
1532;BMP280;759;53.170;8.210;2022-08-21T11:46:27;100745.41;;;25.71
1532;BMP280;759;53.170;8.210;2022-08-21T11:49:10;100739.91;;;25.71
1532;BMP280;759;53.170;8.210;2022-08-21T11:51:45;100732.44;;;25.66
1532;BMP280;759;53.170;8.210;2022-08-21T11:54:25;100736.97;;;25.63
1532;BMP280;759;53.170;8.210;2022-08-21T11:57:00;100728.72;;;25.74
1532;BMP280;759;53.170;8.210;2022-08-21T12:01:58;100737.13;;;26.05
1532;BMP280;759;53.170;8.210;2022-08-21T12:04:31;100732.44;;;25.77
1532;BMP280;759;53.170;8.210;2022-08-21T12:07:10;100741.94;;;25.65
1532;BMP280;759;53.170;8.210;2022-08-21T12:09:37;100723.72;;;25.90
1532;BMP280;759;53.170;8.210;2022-08-21T12:12:22;100729.19;;;25.90
1532;BMP280;759;53.170;8.210;2022-08-21T12:14:51;100732.44;;;25.77
1532;BMP280;759;53.170;8.210;2022-08-21T12:17:22;100729.91;;;26.01
1532;BMP280;759;53.170;8.210;2022-08-21T12:20:17;100728.91;;;26.05
1532;BMP280;759;53.170;8.210;2022-08-21T12:22:49;100724.13;;;26.16
1532;BMP280;759;53.170;8.210;2022-08-21T12:25:18;100713.50;;;25.79
1532;BMP280;759;53.170;8.210;2022-08-21T12:27:49;100723.25;;;25.46
1532;BMP280;759;53.170;8.210;2022-08-21T12:30:42;100725.50;;;25.76
1532;BMP280;759;53.170;8.210;2022-08-21T12:33:26;100721.19;;;26.03
1532;BMP280;759;53.170;8.210;2022-08-21T12:36:07;100720.88;;;26.18
1532;BMP280;759;53.170;8.210;2022-08-21T12:38:42;100718.47;;;25.92
1532;BMP280;759;53.170;8.210;2022-08-21T12:41:17;100719.47;;;25.72
1532;BMP280;759;53.170;8.210;2022-08-21T12:43:47;100721.25;;;25.58
1532;BMP280;759;53.170;8.210;2022-08-21T12:46:34;100706.06;;;25.57
1532;BMP280;759;53.170;8.210;2022-08-21T12:49:07;100718.50;;;25.41
1532;BMP280;759;53.170;8.210;2022-08-21T12:51:54;100717.25;;;25.25
1532;BMP280;759;53.170;8.210;2022-08-21T12:54:29;100713.03;;;25.58
1532;BMP280;759;53.170;8.210;2022-08-21T12:57:02;100711.00;;;25.75
1532;BMP280;759;53.170;8.210;2022-08-21T12:59:29;100707.94;;;26.13
1532;BMP280;759;53.170;8.210;2022-08-21T13:01:55;100712.44;;;26.16
1532;BMP280;759;53.170;8.210;2022-08-21T13:04:27;100697.25;;;25.98
1532;BMP280;759;53.170;8.210;2022-08-21T13:06:58;100703.47;;;26.10
1532;BMP280;759;53.170;8.210;2022-08-21T13:09:27;100710.34;;;26.39
1532;BMP280;759;53.170;8.210;2022-08-21T13:11:54;100688.09;;;26.48
1532;BMP280;759;53.170;8.210;2022-08-21T13:14:36;100705.13;;;26.82
1532;BMP280;759;53.170;8.210;2022-08-21T13:17:04;100694.28;;;26.60
1532;BMP280;759;53.170;8.210;2022-08-21T13:19:30;100692.59;;;26.45
1532;BMP280;759;53.170;8.210;2022-08-21T13:21:57;100690.88;;;26.42
1532;BMP280;759;53.170;8.210;2022-08-21T13:24:24;100702.63;;;26.37
1532;BMP280;759;53.170;8.210;2022-08-21T13:26:50;100707.72;;;26.63
1532;BMP280;759;53.170;8.210;2022-08-21T13:29:19;100704.13;;;26.74
1532;BMP280;759;53.170;8.210;2022-08-21T13:31:55;100685.88;;;26.46
1532;BMP280;759;53.170;8.210;2022-08-21T13:34:23;100696.94;;;26.24
1532;BMP280;759;53.170;8.210;2022-08-21T13:36:52;100697.03;;;26.54
1532;BMP280;759;53.170;8.210;2022-08-21T13:39:20;100695.03;;;26.60
1532;BMP280;759;53.170;8.210;2022-08-21T13:41:49;100688.31;;;26.56
1532;BMP280;759;53.170;8.210;2022-08-21T13:44:18;100678.34;;;26.52
1532;BMP280;759;53.170;8.210;2022-08-21T13:46:45;100691.09;;;26.50
1532;BMP280;759;53.170;8.210;2022-08-21T13:49:15;100699.75;;;26.60
1532;BMP280;759;53.170;8.210;2022-08-21T13:51:42;100691.00;;;26.61
1532;BMP280;759;53.170;8.210;2022-08-21T13:54:43;100689.72;;;26.68
1532;BMP280;759;53.170;8.210;2022-08-21T13:57:19;100706.88;;;26.79
1532;BMP280;759;53.170;8.210;2022-08-21T13:59:45;100713.03;;;26.91
1532;BMP280;759;53.170;8.210;2022-08-21T14:02:16;100708.03;;;26.95
1532;BMP280;759;53.170;8.210;2022-08-21T14:05:00;100709.22;;;27.00
1532;BMP280;759;53.170;8.210;2022-08-21T14:07:33;100703.91;;;27.08
1532;BMP280;759;53.170;8.210;2022-08-21T14:10:12;100710.50;;;26.93
1532;BMP280;759;53.170;8.210;2022-08-21T14:12:45;100707.09;;;26.82
1532;BMP280;759;53.170;8.210;2022-08-21T14:15:14;100694.31;;;26.48
1532;BMP280;759;53.170;8.210;2022-08-21T14:20:29;100699.69;;;26.71
1532;BMP280;759;53.170;8.210;2022-08-21T14:22:56;100698.38;;;26.83
1532;BMP280;759;53.170;8.210;2022-08-21T14:28:01;100710.84;;;26.37
1532;BMP280;759;53.170;8.210;2022-08-21T14:30:31;100708.81;;;26.43
1532;BMP280;759;53.170;8.210;2022-08-21T14:32:57;100714.09;;;26.77
1532;BMP280;759;53.170;8.210;2022-08-21T14:35:23;100709.53;;;26.91
1532;BMP280;759;53.170;8.210;2022-08-21T14:37:49;100723.59;;;27.12
1532;BMP280;759;53.170;8.210;2022-08-21T14:40:16;100733.94;;;27.30
1532;BMP280;759;53.170;8.210;2022-08-21T14:42:43;100714.94;;;27.32
1532;BMP280;759;53.170;8.210;2022-08-21T14:45:27;100704.28;;;27.23
1532;BMP280;759;53.170;8.210;2022-08-21T14:47:54;100721.31;;;27.46
1532;BMP280;759;53.170;8.210;2022-08-21T14:50:20;100720.69;;;27.34
1532;BMP280;759;53.170;8.210;2022-08-21T14:52:45;100728.25;;;27.28
1532;BMP280;759;53.170;8.210;2022-08-21T14:55:12;100709.94;;;27.06
1532;BMP280;759;53.170;8.210;2022-08-21T14:57:46;100720.84;;;27.42
1532;BMP280;759;53.170;8.210;2022-08-21T15:00:15;100723.22;;;27.57
1532;BMP280;759;53.170;8.210;2022-08-21T15:02:42;100714.34;;;27.15
1532;BMP280;759;53.170;8.210;2022-08-21T15:05:08;100703.06;;;26.47
1532;BMP280;759;53.170;8.210;2022-08-21T15:07:33;100699.06;;;26.89
1532;BMP280;759;53.170;8.210;2022-08-21T15:09:59;100696.19;;;27.36
1532;BMP280;759;53.170;8.210;2022-08-21T15:12:24;100701.25;;;27.26
1532;BMP280;759;53.170;8.210;2022-08-21T15:14:51;100702.00;;;27.27
1532;BMP280;759;53.170;8.210;2022-08-21T15:17:19;100714.56;;;27.17
1532;BMP280;759;53.170;8.210;2022-08-21T15:19:45;100702.09;;;27.16
1532;BMP280;759;53.170;8.210;2022-08-21T15:22:10;100696.72;;;27.04
1532;BMP280;759;53.170;8.210;2022-08-21T15:24:36;100715.75;;;27.27
1532;BMP280;759;53.170;8.210;2022-08-21T15:27:03;100709.69;;;27.04
1532;BMP280;759;53.170;8.210;2022-08-21T15:29:30;100710.34;;;27.16
1532;BMP280;759;53.170;8.210;2022-08-21T15:31:58;100723.84;;;27.44
1532;BMP280;759;53.170;8.210;2022-08-21T15:34:26;100725.53;;;27.22
1532;BMP280;759;53.170;8.210;2022-08-21T15:36:52;100708.38;;;26.75
1532;BMP280;759;53.170;8.210;2022-08-21T15:39:18;100688.84;;;26.48
1532;BMP280;759;53.170;8.210;2022-08-21T15:41:44;100705.59;;;26.39
1532;BMP280;759;53.170;8.210;2022-08-21T15:44:12;100716.78;;;26.41
1532;BMP280;759;53.170;8.210;2022-08-21T15:46:38;100710.88;;;26.26
1532;BMP280;759;53.170;8.210;2022-08-21T15:52:22;100677.91;;;25.62
1532;BMP280;759;53.170;8.210;2022-08-21T15:54:48;100663.75;;;25.41
1532;BMP280;759;53.170;8.210;2022-08-21T15:57:22;100619.69;;;25.22